Time;durP1;ratioP1;P1;durP2;ratioP2;P2;SDS_P1;SDS_P2;PMS_P1;PMS_P2;Temp;Humidity;BMP_temperature;BMP_pressure;BME280_temperature;BME280_humidity;BME280_pressure;Samples;Min_cycle;Max_cycle;Signal;HPM_P1;HPM_P2
2021/09/16 00:00:31;;;;;;;;;6.25;5.00;;;;;17.42;72.62;100512.22;5058658;28;45258;-87
2021/09/16 00:02:57;;;;;;;;;4.75;4.75;;;;;17.24;72.44;100492.25;5019922;28;45345;-87
2021/09/16 00:05:22;;;;;;;;;4.00;4.00;;;;;17.32;72.86;100510.44;5018555;28;45293;-89
2021/09/16 00:07:47;;;;;;;;;5.50;4.25;;;;;17.38;72.80;100534.09;5018508;28;45258;-88
2021/09/16 00:10:14;;;;;;;;;5.00;5.00;;;;;17.08;73.26;100490.88;5018103;28;45152;-87
2021/09/16 00:12:40;;;;;;;;;6.50;5.00;;;;;17.28;73.02;100535.88;5018721;28;47925;-87
2021/09/16 00:15:07;;;;;;;;;7.00;5.25;;;;;16.99;73.29;100509.63;5020743;28;45222;-88
2021/09/16 00:17:33;;;;;;;;;5.75;4.75;;;;;17.14;73.61;100535.16;5021171;28;45317;-88
2021/09/16 00:19:59;;;;;;;;;5.00;5.00;;;;;17.09;73.63;100540.09;5024984;28;45440;-87
2021/09/16 00:22:24;;;;;;;;;5.50;5.00;;;;;16.87;74.24;100523.03;5025099;28;46424;-88
2021/09/16 00:24:50;;;;;;;;;5.25;5.25;;;;;16.84;74.20;100511.69;5024651;28;45183;-88
2021/09/16 00:27:15;;;;;;;;;4.00;4.00;;;;;16.90;73.62;100536.25;5023497;28;45286;-88
2021/09/16 00:29:40;;;;;;;;;6.00;6.00;;;;;16.91;74.34;100543.28;5023300;28;45414;-88
2021/09/16 00:32:06;;;;;;;;;4.75;4.75;;;;;16.89;74.26;100542.59;5021798;28;47107;-88
2021/09/16 00:34:31;;;;;;;;;4.75;4.50;;;;;16.95;74.14;100554.66;5024246;28;45293;-87
2021/09/16 00:36:57;;;;;;;;;4.75;4.25;;;;;16.83;74.29;100535.00;5024182;28;45202;-87
2021/09/16 00:39:22;;;;;;;;;5.00;5.00;;;;;16.76;74.09;100531.13;5022710;28;45215;-87
2021/09/16 00:41:47;;;;;;;;;6.25;5.25;;;;;16.82;73.86;100548.56;5024216;28;46285;-87
2021/09/16 00:44:13;;;;;;;;;4.75;4.00;;;;;16.74;73.55;100541.13;5022493;28;45212;-88
2021/09/16 00:46:38;;;;;;;;;5.25;5.25;;;;;16.75;73.74;100545.53;5017920;28;45189;-88
2021/09/16 00:49:05;;;;;;;;;6.00;6.00;;;;;16.68;74.15;100549.69;5017464;28;45187;-87
2021/09/16 00:51:30;;;;;;;;;5.00;5.00;;;;;16.67;74.40;100554.19;5017239;28;47153;-88
2021/09/16 00:53:58;;;;;;;;;5.50;5.00;;;;;16.56;73.68;100540.81;5017292;28;45186;-88
2021/09/16 00:56:25;;;;;;;;;5.00;3.75;;;;;16.62;74.09;100559.09;5017271;28;45324;-88
2021/09/16 00:58:53;;;;;;;;;5.00;5.00;;;;;16.61;74.19;100567.25;5018475;28;45485;-88
2021/09/16 01:01:19;;;;;;;;;5.50;5.50;;;;;16.56;74.57;100565.81;5017351;28;48234;-87
2021/09/16 01:03:45;;;;;;;;;6.25;5.00;;;;;16.54;74.49;100558.84;5018166;28;45263;-88
2021/09/16 01:06:11;;;;;;;;;5.50;4.50;;;;;16.53;74.15;100570.53;5019115;28;45259;-87
2021/09/16 01:08:38;;;;;;;;;5.00;5.00;;;;;16.39;74.34;100556.41;5016965;28;45106;-87
2021/09/16 01:11:03;;;;;;;;;2.75;2.75;;;;;16.46;73.93;100574.69;5016892;28;47187;-87
2021/09/16 01:13:29;;;;;;;;;4.75;4.75;;;;;16.37;74.32;100560.19;5017141;28;45489;-89
2021/09/16 01:15:57;;;;;;;;;4.50;4.00;;;;;16.24;74.58;100544.22;5017568;28;45244;-88
2021/09/16 01:18:23;;;;;;;;;5.25;4.25;;;;;16.37;74.67;100573.59;5016896;28;45230;-87
2021/09/16 01:20:48;;;;;;;;;6.00;5.00;;;;;16.30;74.60;100570.56;5017065;28;47496;-88
2021/09/16 01:23:14;;;;;;;;;7.00;5.75;;;;;16.03;74.79;100528.88;5017146;28;45587;-88
2021/09/16 01:25:39;;;;;;;;;5.00;5.00;;;;;16.27;74.98;100562.75;5019423;28;45231;-87
2021/09/16 01:28:05;;;;;;;;;7.25;4.00;;;;;16.21;74.92;100558.72;5019201;28;45301;-87
2021/09/16 01:30:30;;;;;;;;;4.00;4.00;;;;;16.32;74.95;100581.19;5023158;28;47293;-87
2021/09/16 01:32:57;;;;;;;;;5.00;5.00;;;;;16.13;74.63;100552.25;5022831;28;45132;-87
2021/09/16 01:35:23;;;;;;;;;7.00;5.00;;;;;16.35;75.08;100583.63;5017428;28;45206;-89
2021/09/16 01:37:49;;;;;;;;;7.00;5.00;;;;;16.11;74.99;100546.19;5016722;28;45280;-87
2021/09/16 01:40:14;;;;;;;;;5.00;5.00;;;;;16.32;75.03;100581.19;5017622;28;45532;-88
2021/09/16 01:42:44;;;;;;;;;6.75;5.00;;;;;16.32;75.04;100578.50;5016661;28;45232;-88
2021/09/16 01:45:13;;;;;;;;;5.25;5.00;;;;;16.38;74.88;100588.75;5018066;28;45291;-88
2021/09/16 01:47:40;;;;;;;;;6.00;5.25;;;;;16.38;75.16;100591.44;5016802;28;45253;-88
2021/09/16 01:50:06;;;;;;;;;6.00;5.00;;;;;16.21;74.85;100560.56;5016072;28;46988;-88
2021/09/16 01:52:31;;;;;;;;;6.00;5.00;;;;;16.25;74.74;100550.44;5016261;28;45316;-87
2021/09/16 01:54:56;;;;;;;;;5.50;5.50;;;;;16.28;75.07;100555.56;5016457;28;45236;-88
2021/09/16 01:57:21;;;;;;;;;6.00;5.25;;;;;16.25;74.92;100551.31;5016180;28;45164;-88
2021/09/16 01:59:47;;;;;;;;;7.00;6.00;;;;;16.43;75.20;100574.94;5017097;28;45592;-88
2021/09/16 02:02:12;;;;;;;;;4.25;4.25;;;;;16.43;74.99;100574.94;5016038;28;45208;-87
2021/09/16 02:04:37;;;;;;;;;5.00;5.00;;;;;16.46;74.79;100586.31;5017286;28;45240;-88
2021/09/16 02:07:03;;;;;;;;;6.25;4.75;;;;;16.46;74.94;100572.03;5017164;28;45313;-89
2021/09/16 02:09:28;;;;;;;;;5.75;5.75;;;;;16.48;74.52;100578.13;5015643;28;47090;-88
2021/09/16 02:11:53;;;;;;;;;5.25;5.00;;;;;16.58;74.91;100589.84;5017473;28;45198;-87
2021/09/16 02:14:19;;;;;;;;;5.75;4.75;;;;;16.51;74.89;100573.34;5015929;28;45333;-88
2021/09/16 02:16:44;;;;;;;;;6.75;5.25;;;;;16.57;74.71;100580.06;5015888;28;45288;-88
2021/09/16 02:19:09;;;;;;;;;5.00;5.00;;;;;16.52;74.34;100576.91;5015783;28;47244;-88
2021/09/16 02:21:35;;;;;;;;;6.25;5.25;;;;;16.51;74.63;100576.03;5017241;28;45214;-88
2021/09/16 02:24:01;;;;;;;;;7.00;5.50;;;;;16.51;74.62;100580.56;5017352;28;45159;-88
2021/09/16 02:26:26;;;;;;;;;5.00;5.00;;;;;16.44;74.27;100563.25;5017447;28;45270;-87
2021/09/16 02:28:51;;;;;;;;;7.25;5.75;;;;;16.58;74.52;100587.16;5016599;28;46630;-89
2021/09/16 02:31:17;;;;;;;;;5.25;4.75;;;;;16.41;74.54;100560.81;5015554;28;45577;-88
2021/09/16 02:33:42;;;;;;;;;5.75;4.75;;;;;16.55;74.40;100584.72;5015691;28;45438;-88
2021/09/16 02:36:07;;;;;;;;;6.00;6.00;;;;;16.42;74.67;100567.88;5016058;28;45116;-87
2021/09/16 02:38:33;;;;;;;;;4.25;4.25;;;;;16.63;74.45;100597.50;5015176;28;47225;-88
2021/09/16 02:40:58;;;;;;;;;8.00;6.00;;;;;16.61;74.42;100594.94;5015533;28;45286;-88
2021/09/16 02:43:23;;;;;;;;;5.00;4.00;;;;;16.58;74.25;100587.16;5016946;28;45298;-87
2021/09/16 02:45:49;;;;;;;;;5.50;4.00;;;;;16.65;74.46;100598.25;5015291;28;45320;-87
2021/09/16 02:48:14;;;;;;;;;5.50;5.50;;;;;16.46;74.50;100563.97;5015075;28;47711;-89
2021/09/16 02:50:39;;;;;;;;;6.00;5.00;;;;;16.58;74.39;100579.09;5016584;28;45273;-89
2021/09/16 02:53:05;;;;;;;;;4.50;4.50;;;;;16.46;74.35;100567.53;5015662;28;45259;-87
2021/09/16 02:55:31;;;;;;;;;6.75;5.00;;;;;16.52;74.66;100583.13;5015148;28;45204;-88
2021/09/16 02:57:56;;;;;;;;;5.75;5.00;;;;;16.59;74.58;100604.09;5015284;28;47185;-87
2021/09/16 03:00:21;;;;;;;;;6.75;6.00;;;;;16.43;74.37;100578.47;5016299;28;45329;-88
2021/09/16 03:02:47;;;;;;;;;6.25;4.00;;;;;16.26;74.67;100553.03;5015167;28;45221;-88
2021/09/16 03:05:12;;;;;;;;;4.50;4.50;;;;;16.43;74.69;100588.38;5015246;28;45195;-87
2021/09/16 03:07:38;;;;;;;;;6.50;5.00;;;;;16.33;74.54;100575.69;5015404;28;47469;-90
2021/09/16 03:10:05;;;;;;;;;7.50;6.50;;;;;16.34;74.78;100588.13;5016534;28;45214;-88
2021/09/16 03:12:30;;;;;;;;;5.00;5.00;;;;;16.29;74.43;100593.00;5016660;28;45537;-88
2021/09/16 03:14:55;;;;;;;;;4.25;4.25;;;;;16.34;74.32;100603.38;5015315;28;45195;-88
2021/09/16 03:17:21;;;;;;;;;7.50;6.50;;;;;16.22;74.51;100591.78;5015241;28;47268;-87
2021/09/16 03:19:46;;;;;;;;;5.00;5.00;;;;;16.09;74.99;100586.53;5013546;28;45159;-87
2021/09/16 03:22:12;;;;;;;;;8.25;6.00;;;;;16.07;74.65;100587.63;5015329;28;45184;-87
2021/09/16 03:24:38;;;;;;;;;5.75;5.75;;;;;16.17;75.09;100608.22;5016513;28;45210;-88
2021/09/16 03:27:04;;;;;;;;;5.50;5.50;;;;;16.09;75.32;100591.03;5015285;28;48594;-88
2021/09/16 03:29:29;;;;;;;;;9.00;6.25;;;;;16.05;74.61;100602.00;5014708;28;46183;-87
2021/09/16 03:31:54;;;;;;;;;8.25;5.75;;;;;15.92;74.88;100589.66;5015310;28;45201;-90
2021/09/16 03:34:20;;;;;;;;;8.50;6.75;;;;;16.00;74.90;100604.19;5014955;28;45310;-89
2021/09/16 03:36:46;;;;;;;;;5.75;5.00;;;;;16.06;74.70;100618.94;5016289;28;46033;-87
2021/09/16 03:39:12;;;;;;;;;7.00;6.00;;;;;15.84;74.90;100584.88;5014347;28;45581;-88
2021/09/16 03:41:37;;;;;;;;;6.50;5.00;;;;;15.94;74.91;100603.81;5014905;28;45630;-87
2021/09/16 03:44:03;;;;;;;;;5.25;5.25;;;;;15.90;75.19;100613.06;5014677;28;45151;-88
2021/09/16 03:46:28;;;;;;;;;6.25;5.25;;;;;15.88;75.11;100615.84;5016133;28;46609;-87
2021/09/16 03:48:53;;;;;;;;;6.75;5.75;;;;;15.84;75.25;100612.53;5014727;28;45301;-89
2021/09/16 03:51:19;;;;;;;;;5.00;5.00;;;;;15.74;75.68;100595.44;5014643;28;45206;-88
2021/09/16 03:53:44;;;;;;;;;6.00;5.00;;;;;15.84;75.33;100615.22;5016558;28;45167;-88
2021/09/16 03:56:09;;;;;;;;;7.50;6.00;;;;;15.88;75.44;100615.84;5014689;28;48475;-88
2021/09/16 03:58:34;;;;;;;;;7.75;6.25;;;;;15.88;75.40;100622.06;5014623;28;45729;-89
2021/09/16 04:01:00;;;;;;;;;6.25;5.25;;;;;15.78;75.76;100614.81;5014408;28;45263;-89
2021/09/16 04:03:25;;;;;;;;;5.75;5.75;;;;;15.84;75.49;100625.94;5015852;28;45456;-88
2021/09/16 04:05:50;;;;;;;;;5.50;5.50;;;;;15.67;75.86;100605.75;5014401;28;48401;-89
2021/09/16 04:08:16;;;;;;;;;6.00;6.00;;;;;15.71;75.38;100617.13;5014499;28;45442;-88
2021/09/16 04:10:41;;;;;;;;;6.50;6.50;;;;;15.73;75.51;100633.91;5014283;28;45229;-88
2021/09/16 04:13:07;;;;;;;;;8.75;6.25;;;;;15.67;75.86;100623.69;5015975;28;45360;-87
2021/09/16 04:15:32;;;;;;;;;6.50;4.75;;;;;15.48;75.72;100600.09;5015877;28;45560;-87
2021/09/16 04:17:58;;;;;;;;;8.00;7.00;;;;;15.58;75.62;100611.81;5014202;28;45375;-87
2021/09/16 04:20:23;;;;;;;;;6.75;6.75;;;;;15.64;75.96;100632.78;5015687;28;45294;-88
2021/09/16 04:22:48;;;;;;;;;9.75;9.00;;;;;15.62;75.65;100633.88;5014222;28;45314;-88
2021/09/16 04:25:14;;;;;;;;;13.75;10.50;;;;;15.63;75.59;100640.94;5015573;28;45270;-88
2021/09/16 04:27:39;;;;;;;;;8.25;6.25;;;;;15.60;76.01;100635.84;5013793;28;45198;-87
2021/09/16 04:30:05;;;;;;;;;7.75;7.75;;;;;15.59;75.94;100637.66;5014621;28;45482;-88
2021/09/16 04:32:31;;;;;;;;;8.50;7.00;;;;;15.51;75.92;100621.31;5019006;28;45175;-87
2021/09/16 04:34:56;;;;;;;;;6.75;6.75;;;;;15.61;76.11;100624.16;5018553;28;46117;-88
2021/09/16 04:37:21;;;;;;;;;13.50;8.25;;;;;15.61;75.92;100626.81;5019123;28;45283;-87
2021/09/16 04:39:47;;;;;;;;;7.00;7.00;;;;;15.66;75.75;100622.81;5017121;28;45176;-87
2021/09/16 04:42:12;;;;;;;;;9.50;8.00;;;;;15.70;76.40;100629.66;5018912;28;45247;-89
2021/09/16 04:44:38;;;;;;;;;6.75;5.25;;;;;15.70;76.11;100626.13;5019640;28;45951;-89
2021/09/16 04:47:03;;;;;;;;;10.00;5.50;;;;;15.75;75.46;100634.69;5017712;28;45528;-88
2021/09/16 04:49:29;;;;;;;;;11.00;8.00;;;;;15.67;75.60;100615.63;5017518;28;45282;-89
2021/09/16 04:51:55;;;;;;;;;7.50;7.25;;;;;15.68;75.76;100623.56;5018060;28;45071;-92
2021/09/16 04:54:20;;;;;;;;;8.75;8.25;;;;;15.82;75.59;100635.09;5018586;28;46999;-91
2021/09/16 04:56:46;;;;;;;;;11.50;8.25;;;;;15.81;75.92;100633.38;5018600;28;45177;-91
2021/09/16 04:59:11;;;;;;;;;11.00;10.25;;;;;15.68;76.18;100609.31;5018447;28;45123;-93
2021/09/16 05:01:36;;;;;;;;;8.25;8.25;;;;;15.83;75.48;100636.78;5019697;28;45216;-94
2021/09/16 05:04:02;;;;;;;;;9.00;7.00;;;;;15.80;76.08;100637.88;5018134;28;46856;-91
2021/09/16 05:06:27;;;;;;;;;8.25;8.00;;;;;15.78;75.53;100630.91;5018595;28;45531;-93
2021/09/16 05:08:53;;;;;;;;;9.00;9.00;;;;;15.77;75.71;100631.88;5019046;28;45195;-92
2021/09/16 05:11:18;;;;;;;;;9.25;7.50;;;;;15.82;75.41;100644.00;5020090;28;45380;-90
2021/09/16 05:13:43;;;;;;;;;8.00;8.00;;;;;15.73;75.14;100630.41;5019463;28;47512;-89
2021/09/16 05:16:09;;;;;;;;;10.00;9.50;;;;;15.67;75.36;100629.03;5020189;28;45277;-88
2021/09/16 05:18:35;;;;;;;;;11.00;10.50;;;;;15.77;75.26;100661.38;5017206;28;45292;-89
2021/09/16 05:21:00;;;;;;;;;11.75;8.50;;;;;15.55;75.34;100625.47;5033522;28;45333;-88
2021/09/16 05:23:25;;;;;;;;;11.50;8.25;;;;;15.58;75.64;100635.94;5016713;28;46996;-88
2021/09/16 05:25:51;;;;;;;;;10.50;9.25;;;;;15.53;75.78;100632.75;5018054;28;45332;-88
2021/09/16 05:28:16;;;;;;;;;9.50;9.50;;;;;15.60;75.27;100643.88;5016943;28;45218;-88
2021/09/16 05:30:42;;;;;;;;;9.25;8.75;;;;;15.69;75.40;100662.78;5018364;28;45203;-88
2021/09/16 05:33:09;;;;;;;;;10.50;9.00;;;;;15.60;75.17;100658.13;5016389;28;48274;-88
2021/09/16 05:35:36;;;;;;;;;12.50;10.00;;;;;15.64;75.17;100662.28;5016657;28;45902;-89
2021/09/16 05:38:01;;;;;;;;;11.25;10.50;;;;;15.66;75.82;100665.72;5018023;28;45104;-88
2021/09/16 05:40:27;;;;;;;;;9.00;9.00;;;;;15.26;75.68;100599.00;5016490;28;45193;-89
2021/09/16 05:42:52;;;;;;;;;10.25;8.75;;;;;15.53;75.52;100638.97;5015422;28;47594;-88
2021/09/16 05:45:18;;;;;;;;;12.50;11.50;;;;;15.58;75.30;100653.88;5016599;28;45210;-88
2021/09/16 05:47:43;;;;;;;;;12.50;11.50;;;;;15.61;75.82;100659.00;5016744;28;45231;-88
2021/09/16 05:50:09;;;;;;;;;13.25;10.50;;;;;15.45;75.29;100638.69;5016392;28;45215;-89
2021/09/16 05:52:34;;;;;;;;;13.25;11.75;;;;;15.54;75.42;100656.75;5016595;28;48173;-88
2021/09/16 05:55:00;;;;;;;;;10.25;10.25;;;;;15.55;75.65;100657.63;5016060;28;45198;-90
2021/09/16 05:57:25;;;;;;;;;10.75;10.75;;;;;15.58;75.54;100661.91;5018010;28;45258;-88
2021/09/16 05:59:51;;;;;;;;;10.25;8.00;;;;;15.53;75.90;100657.75;5016350;28;45384;-88
2021/09/16 06:02:16;;;;;;;;;10.00;8.75;;;;;15.37;75.68;100635.72;5016074;28;47205;-89
2021/09/16 06:04:41;;;;;;;;;14.25;10.50;;;;;15.33;75.75;100627.06;5017366;28;45375;-87
2021/09/16 06:07:07;;;;;;;;;9.25;8.25;;;;;15.46;75.74;100659.16;5015946;28;45216;-88
2021/09/16 06:09:33;;;;;;;;;16.75;13.75;;;;;15.59;75.72;100679.66;5017449;28;45308;-87
2021/09/16 06:12:00;;;;;;;;;13.50;10.00;;;;;15.42;75.71;100651.44;5017337;28;45553;-88
2021/09/16 06:14:25;;;;;;;;;12.50;10.50;;;;;15.48;76.08;100654.53;5016386;28;45188;-87
2021/09/16 06:16:52;;;;;;;;;11.75;10.25;;;;;15.73;76.77;100681.31;5016119;28;45195;-88
2021/09/16 06:19:18;;;;;;;;;9.50;9.50;;;;;15.60;76.70;100650.06;5016767;28;45198;-88
2021/09/16 06:21:43;;;;;;;;;11.50;10.00;;;;;15.81;76.78;100668.25;5016207;28;47295;-88
2021/09/16 06:24:08;;;;;;;;;15.25;10.50;;;;;16.07;76.30;100682.31;5017031;28;45331;-89
2021/09/16 06:26:34;;;;;;;;;9.25;8.25;;;;;16.36;75.39;100704.25;5016018;28;45603;-88
2021/09/16 06:28:59;;;;;;;;;12.75;11.50;;;;;16.52;75.28;100692.31;5015943;28;45469;-88
2021/09/16 06:31:25;;;;;;;;;8.25;8.00;;;;;16.47;74.94;100657.78;5015319;28;47039;-87
2021/09/16 06:33:50;;;;;;;;;11.00;11.00;;;;;16.91;74.75;100706.28;5017021;28;45269;-87
2021/09/16 06:36:15;;;;;;;;;12.50;10.50;;;;;17.01;74.07;100685.75;5017404;28;45274;-88
2021/09/16 06:38:41;;;;;;;;;11.00;10.00;;;;;17.21;73.49;100694.03;5015541;28;45297;-89
2021/09/16 06:41:06;;;;;;;;;12.25;10.75;;;;;17.52;73.16;100704.97;5015340;28;46811;-89
2021/09/16 06:43:32;;;;;;;;;9.00;9.00;;;;;17.61;72.60;100693.44;5016675;28;45265;-88
2021/09/16 06:45:57;;;;;;;;;12.75;7.75;;;;;17.89;71.85;100702.75;5015578;28;45124;-88
2021/09/16 06:48:22;;;;;;;;;7.25;6.00;;;;;17.94;71.50;100687.13;5015787;28;45333;-89
2021/09/16 06:50:48;;;;;;;;;8.75;8.00;;;;;18.26;70.60;100709.59;5015174;28;47480;-87
2021/09/16 06:53:13;;;;;;;;;14.00;10.00;;;;;18.44;70.50;100704.44;5015428;28;45236;-88
2021/09/16 06:55:40;;;;;;;;;10.25;9.50;;;;;18.68;70.05;100704.16;5017033;28;45252;-88
2021/09/16 06:58:05;;;;;;;;;12.00;10.00;;;;;18.71;69.52;100679.69;5015213;28;45416;-89
2021/09/16 07:00:31;;;;;;;;;9.50;9.00;;;;;19.06;68.94;100699.97;5014956;28;47193;-90
2021/09/16 07:02:56;;;;;;;;;15.75;9.25;;;;;19.26;68.23;100708.13;5015207;28;45611;-88
2021/09/16 07:05:22;;;;;;;;;12.75;11.75;;;;;19.35;67.95;100701.03;5015558;28;45168;-90
2021/09/16 07:07:47;;;;;;;;;10.50;9.25;;;;;19.45;67.30;100692.00;5016818;28;45157;-89
2021/09/16 07:10:13;;;;;;;;;12.75;10.00;;;;;19.62;66.71;100701.25;5016168;28;45293;-88
2021/09/16 07:12:38;;;;;;;;;11.75;10.25;;;;;19.68;67.00;100683.63;5015600;28;45215;-88
2021/09/16 07:15:04;;;;;;;;;10.00;7.50;;;;;19.92;66.77;100698.59;5015689;28;45249;-89
2021/09/16 07:17:30;;;;;;;;;13.50;11.50;;;;;20.10;65.80;100704.97;5015369;28;45169;-88
2021/09/16 07:19:55;;;;;;;;;10.50;9.25;;;;;20.21;65.23;100697.69;5015136;28;47857;-89
2021/09/16 07:22:22;;;;;;;;;11.50;10.00;;;;;20.30;64.95;100710.34;5015038;28;45302;-89
2021/09/16 07:24:48;;;;;;;;;10.25;9.75;;;;;20.35;64.68;100726.94;5014646;28;45270;-88
2021/09/16 07:27:13;;;;;;;;;13.00;12.25;;;;;20.32;65.03;100727.25;5016663;28;45192;-89
2021/09/16 07:29:39;;;;;;;;;11.00;9.00;;;;;20.33;65.14;100727.09;5014801;28;47442;-88
2021/09/16 07:32:05;;;;;;;;;8.75;7.75;;;;;20.46;64.90;100737.59;5014430;28;45193;-89
2021/09/16 07:34:30;;;;;;;;;11.50;9.50;;;;;20.42;64.55;100725.41;5014877;28;45246;-89
2021/09/16 07:36:55;;;;;;;;;9.75;9.00;;;;;20.41;64.12;100723.69;5014641;28;45220;-89
2021/09/16 07:39:21;;;;;;;;;13.00;11.25;;;;;20.55;64.18;100738.59;5014986;28;46948;-90
2021/09/16 07:41:48;;;;;;;;;9.75;7.75;;;;;20.57;64.18;100731.19;5014790;28;45161;-89
2021/09/16 07:44:15;;;;;;;;;11.00;10.00;;;;;20.61;64.23;100735.31;5014874;28;45292;-88
2021/09/16 07:46:41;;;;;;;;;9.00;8.50;;;;;20.62;63.53;100723.50;5016399;28;45342;-90
2021/09/16 07:49:06;;;;;;;;;11.25;10.00;;;;;20.72;63.93;100723.50;5014877;28;46925;-88
2021/09/16 07:51:32;;;;;;;;;13.00;10.50;;;;;20.81;63.64;100727.19;5014221;28;45250;-89
2021/09/16 07:53:57;;;;;;;;;10.00;9.00;;;;;20.99;63.76;100729.94;5016102;28;45302;-88
2021/09/16 07:56:23;;;;;;;;;11.50;10.25;;;;;21.12;62.42;100716.94;5014904;28;45430;-89
2021/09/16 07:58:48;;;;;;;;;11.00;10.00;;;;;21.34;61.82;100712.97;5014143;28;47071;-90
2021/09/16 08:01:14;;;;;;;;;13.50;11.00;;;;;21.70;62.22;100726.56;5015948;28;45194;-89
2021/09/16 08:03:39;;;;;;;;;9.25;9.25;;;;;21.91;61.31;100720.03;5014375;28;45219;-88
2021/09/16 08:06:05;;;;;;;;;11.75;11.50;;;;;22.24;60.86;100733.84;5016639;28;45344;-89
2021/09/16 08:08:31;;;;;;;;;14.00;11.25;;;;;22.44;59.85;100728.28;5018105;28;47317;-88
2021/09/16 08:10:57;;;;;;;;;11.50;10.50;;;;;22.62;59.17;100726.38;5018118;28;45571;-89
2021/09/16 08:13:22;;;;;;;;;12.25;11.00;;;;;22.88;58.94;100745.31;5019462;28;45155;-89
2021/09/16 08:15:48;;;;;;;;;10.75;9.25;;;;;23.11;58.56;100750.22;5019429;28;45213;-88
2021/09/16 08:18:13;;;;;;;;;9.50;9.00;;;;;23.29;58.04;100731.16;5019276;28;45462;-89
2021/09/16 08:20:45;;;;;;;;;9.00;8.00;;;;;23.55;56.93;100744.63;5019380;28;45308;-89
2021/09/16 08:23:11;;;;;;;;;14.25;8.75;;;;;23.67;56.59;100728.91;5019732;28;45207;-88
2021/09/16 08:25:36;;;;;;;;;9.50;8.25;;;;;23.90;56.28;100742.69;5019787;28;45204;-88
2021/09/16 08:28:02;;;;;;;;;8.00;8.00;;;;;24.15;55.40;100748.16;5019266;28;45898;-91
2021/09/16 08:30:28;;;;;;;;;9.00;9.00;;;;;24.35;54.75;100762.25;5019496;28;45640;-89
2021/09/16 08:32:54;;;;;;;;;10.25;6.75;;;;;24.44;54.21;100744.91;5019313;28;45310;-88
2021/09/16 08:35:19;;;;;;;;;12.75;8.25;;;;;24.49;54.26;100728.09;5017659;28;45300;-88
2021/09/16 08:37:46;;;;;;;;;9.00;8.00;;;;;24.55;53.29;100735.56;5017381;28;47043;-89
2021/09/16 08:40:12;;;;;;;;;8.00;8.00;;;;;24.81;53.32;100746.25;5017292;28;46832;-89
2021/09/16 08:42:41;;;;;;;;;8.00;7.50;;;;;24.99;52.68;100743.28;5017287;28;45183;-88
2021/09/16 08:45:09;;;;;;;;;10.50;8.50;;;;;25.10;52.30;100722.19;5018785;28;45442;-87
2021/09/16 08:47:37;;;;;;;;;8.00;7.00;;;;;25.29;51.64;100739.97;5019049;28;45298;-90
2021/09/16 08:50:03;;;;;;;;;12.00;10.00;;;;;25.40;51.05;100750.50;5018693;28;45646;-88
2021/09/16 08:52:30;;;;;;;;;9.25;8.00;;;;;25.31;51.13;100729.72;5018859;28;45124;-89
2021/09/16 08:54:57;;;;;;;;;8.25;7.25;;;;;25.45;50.73;100741.78;5019951;28;45406;-88
2021/09/16 08:57:23;;;;;;;;;8.00;7.50;;;;;25.66;51.25;100752.06;5018209;28;48239;-88
2021/09/16 08:59:49;;;;;;;;;10.00;7.75;;;;;25.82;50.27;100756.53;5017991;28;45566;-89
2021/09/16 09:02:14;;;;;;;;;13.00;6.75;;;;;25.70;49.65;100742.50;5018851;28;45281;-88
2021/09/16 09:04:41;;;;;;;;;8.00;6.50;;;;;25.60;50.00;100753.63;5018539;28;45187;-89
2021/09/16 09:07:06;;;;;;;;;10.75;8.75;;;;;25.48;50.10;100734.13;5018484;28;46485;-88
2021/09/16 09:09:32;;;;;;;;;8.25;8.25;;;;;25.72;49.98;100764.09;5017919;28;45296;-89
2021/09/16 09:12:02;;;;;;;;;12.25;9.00;;;;;25.87;49.21;100762.31;5018086;28;45245;-88
2021/09/16 09:14:38;;;;;;;;;8.25;7.00;;;;;25.86;48.41;100754.31;5018437;28;45233;-90
2021/09/16 09:17:31;;;;;;;;;9.25;8.75;;;;;25.98;48.58;100767.34;5018193;28;46399;-89
2021/09/16 09:20:01;;;;;;;;;6.25;5.00;;;;;26.11;47.97;100760.44;5016813;28;45548;-89
2021/09/16 09:22:32;;;;;;;;;6.25;6.00;;;;;26.19;47.63;100763.13;5018310;28;45239;-88
2021/09/16 09:25:06;;;;;;;;;7.25;5.00;;;;;26.16;47.70;100741.69;5016528;28;45237;-88
2021/09/16 09:27:35;;;;;;;;;5.00;4.75;;;;;26.49;47.28;100760.47;5016532;28;48680;-89
2021/09/16 09:30:09;;;;;;;;;4.00;4.00;;;;;26.77;47.30;100763.47;5017978;28;45546;-89
2021/09/16 09:32:48;;;;;;;;;3.00;3.00;;;;;27.28;46.05;100770.91;5016676;28;45324;-88
2021/09/16 09:35:33;;;;;;;;;4.00;3.00;;;;;27.58;43.82;100757.25;5016612;28;45460;-89
2021/09/16 09:38:16;;;;;;;;;3.50;3.00;;;;;27.55;43.84;100776.75;5018281;28;45442;-88
2021/09/16 09:40:44;;;;;;;;;3.25;3.25;;;;;26.97;44.13;100761.03;5018237;28;45323;-89
2021/09/16 09:43:30;;;;;;;;;5.75;4.00;;;;;26.43;44.61;100769.41;5017980;28;45270;-88
2021/09/16 09:46:10;;;;;;;;;3.75;3.00;;;;;26.17;45.44;100770.63;5017916;28;45382;-88
2021/09/16 09:48:41;;;;;;;;;2.25;2.25;;;;;26.26;45.96;100763.25;5017895;28;46231;-88
2021/09/16 09:51:08;;;;;;;;;2.00;2.00;;;;;26.45;45.02;100764.59;5017602;28;45637;-88
2021/09/16 09:53:38;;;;;;;;;3.00;2.75;;;;;26.52;45.13;100766.41;5016177;28;45177;-88
2021/09/16 09:56:14;;;;;;;;;4.00;2.50;;;;;26.68;44.66;100759.13;5016477;28;45259;-88
2021/09/16 09:58:40;;;;;;;;;1.25;1.25;;;;;26.84;44.13;100758.97;5015797;28;46422;-87
2021/09/16 10:01:35;;;;;;;;;2.25;1.75;;;;;27.23;44.41;100756.97;5015700;28;45367;-87
2021/09/16 10:04:26;;;;;;;;;4.00;2.50;;;;;27.67;43.58;100756.06;5016018;28;45211;-88
2021/09/16 10:06:52;;;;;;;;;1.50;1.25;;;;;27.79;42.39;100742.78;5016195;28;45451;-88
2021/09/16 10:09:19;;;;;;;;;1.00;1.00;;;;;28.03;42.45;100749.78;5017133;28;45669;-88
2021/09/16 10:11:46;;;;;;;;;2.00;2.00;;;;;28.24;42.62;100761.75;5017846;28;45307;-88
2021/09/16 10:14:12;;;;;;;;;3.00;3.00;;;;;28.50;41.99;100731.03;5017391;28;45282;-88
2021/09/16 10:16:38;;;;;;;;;3.00;3.00;;;;;28.92;41.68;100742.09;5016280;28;45031;-88
2021/09/16 10:19:04;;;;;;;;;3.50;3.50;;;;;29.16;41.17;100740.75;5015716;28;46999;-89
2021/09/16 10:21:30;;;;;;;;;4.50;3.00;;;;;29.34;41.10;100742.94;5017216;28;45275;-89
2021/09/16 10:23:58;;;;;;;;;2.75;2.75;;;;;29.37;41.13;100725.25;5016393;28;45335;-88
2021/09/16 10:26:47;;;;;;;;;3.75;3.50;;;;;29.55;41.07;100752.09;5017530;28;45375;-88
2021/09/16 10:29:28;;;;;;;;;2.00;2.00;;;;;29.59;40.95;100740.50;5016455;28;45477;-88
2021/09/16 10:32:25;;;;;;;;;2.00;2.00;;;;;29.74;40.00;100739.47;5017141;28;45549;-88
2021/09/16 10:34:56;;;;;;;;;1.75;1.75;;;;;29.75;40.00;100727.47;5017059;28;45168;-89
2021/09/16 10:37:23;;;;;;;;;2.50;2.50;;;;;29.88;40.54;100729.44;5017492;28;45350;-88
2021/09/16 10:39:50;;;;;;;;;1.25;1.25;;;;;29.95;40.26;100728.38;5016777;28;45439;-88
2021/09/16 10:42:16;;;;;;;;;2.00;2.00;;;;;30.14;39.70;100739.56;5015643;28;45167;-89
2021/09/16 10:44:42;;;;;;;;;6.75;3.75;;;;;30.15;39.30;100735.78;5017032;28;45382;-89
2021/09/16 10:47:23;;;;;;;;;2.00;2.00;;;;;29.77;38.32;100723.50;5015853;28;45447;-89
2021/09/16 10:49:50;;;;;;;;;3.50;1.50;;;;;29.34;38.79;100740.19;5016730;28;45616;-89
2021/09/16 10:52:19;;;;;;;;;4.00;3.00;;;;;28.75;38.98;100741.56;5016958;28;45282;-91
2021/09/16 10:54:45;;;;;;;;;4.50;4.50;;;;;28.19;39.76;100737.72;5016893;28;45306;-88
2021/09/16 10:57:13;;;;;;;;;3.00;3.00;;;;;27.78;40.57;100730.16;5017172;28;45210;-88
2021/09/16 10:59:50;;;;;;;;;5.00;4.00;;;;;27.86;41.66;100748.28;5015658;28;46754;-88
2021/09/16 11:02:16;;;;;;;;;2.50;2.50;;;;;28.07;40.87;100723.72;5015473;28;46010;-88
2021/09/16 11:04:54;;;;;;;;;5.50;4.25;;;;;28.47;40.12;100731.41;5015617;28;45297;-88
2021/09/16 11:07:32;;;;;;;;;3.25;3.00;;;;;28.69;39.66;100737.72;5015718;28;45335;-88
2021/09/16 11:10:17;;;;;;;;;3.75;3.00;;;;;29.03;40.21;100725.09;5015072;28;47396;-89
2021/09/16 11:12:50;;;;;;;;;4.00;4.00;;;;;29.24;39.02;100726.88;5016599;28;45545;-88
2021/09/16 11:15:29;;;;;;;;;3.00;3.00;;;;;29.23;38.83;100713.41;5015385;28;45226;-90
2021/09/16 11:18:22;;;;;;;;;4.00;3.00;;;;;29.51;38.98;100723.41;5015603;28;45289;-90
2021/09/16 11:20:54;;;;;;;;;1.50;1.50;;;;;29.74;38.22;100723.91;5011449;28;47046;-89